Jackson Junction, Iowa
Current Conditions -  °F | °C
As of 10:35 AM on Tuesday 21 Oct 2014 (Local Time) from KDEH Reporting Station
Few Clouds Few Clouds  
Wind Chill:   Ceiling: Unl
Heat Index:   Visibility: 10mi
Dew Point:   Wind: 8mph
Humidity: 71%   Direction: 90°E
Pressure: 30.21"   Gusts: NA
Location:  43.0382°N, 92.0219°W
Report Text: KDEH 211535Z AUTO 09007KT 060V120 10SM FEW014 09/04 A3021 RMK AO2
Loading
Personal Weather Stations






























Interactive Weather Map
Tropical Storm Tracking
New forecast layout! Learn more

10-Day Weather Forecast

Advertisements
Track Severe Weather on mobile